Time;durP1;ratioP1;P1;durP2;ratioP2;P2;SDS_P1;SDS_P2;PMS_P1;PMS_P2;Temp;Humidity;BMP_temperature;BMP_pressure;BME280_temperature;BME280_humidity;BME280_pressure;Samples;Min_cycle;Max_cycle;Signal;HPM_P1;HPM_P2
2021/07/26 00:00:56;;;;;;;6.95;4.78;;;;;;;15.73;87.29;95198.44;5094376;28;20168;-78
2021/07/26 00:03:21;;;;;;;5.30;4.80;;;;;;;15.69;87.01;95200.59;5093838;28;20543;-77
2021/07/26 00:05:58;;;;;;;4.82;4.20;;;;;;;15.69;87.12;95195.34;5094000;28;20196;-77
2021/07/26 00:08:23;;;;;;;5.88;4.63;;;;;;;15.72;86.71;95200.22;5077192;28;20221;-78
2021/07/26 00:10:58;;;;;;;5.05;4.53;;;;;;;15.75;86.65;95202.47;5112725;28;20179;-77
2021/07/26 00:13:23;;;;;;;5.07;4.15;;;;;;;15.79;86.19;95197.66;5097456;28;20203;-77
2021/07/26 00:15:48;;;;;;;4.80;4.15;;;;;;;15.92;85.34;95196.97;5098110;28;20230;-77
2021/07/26 00:18:14;;;;;;;4.07;3.67;;;;;;;15.96;84.88;95199.03;5097588;28;20298;-78
2021/07/26 00:20:39;;;;;;;5.57;4.63;;;;;;;15.98;85.09;95197.00;5080530;28;20550;-78
2021/07/26 00:23:04;;;;;;;5.32;4.20;;;;;;;16.01;84.92;95196.66;5097522;28;20199;-78
2021/07/26 00:25:30;;;;;;;5.82;4.47;;;;;;;15.96;85.12;95203.44;5115694;28;20263;-77
2021/07/26 00:27:55;;;;;;;4.50;3.95;;;;;;;15.69;86.35;95199.78;5097859;28;20237;-77
2021/07/26 00:30:20;;;;;;;5.88;3.95;;;;;;;15.63;86.67;95206.56;5097506;28;20179;-77
2021/07/26 00:32:46;;;;;;;4.60;3.83;;;;;;;15.81;85.98;95206.13;5097295;28;20279;-77
2021/07/26 00:35:11;;;;;;;4.25;3.67;;;;;;;15.96;84.70;95196.41;5097171;28;20233;-77
2021/07/26 00:37:36;;;;;;;5.88;3.95;;;;;;;15.79;85.47;95208.13;5097901;28;20191;-78
2021/07/26 00:40:07;;;;;;;6.05;4.28;;;;;;;15.73;85.72;95214.94;5080606;28;20179;-78
2021/07/26 00:42:33;;;;;;;5.88;4.43;;;;;;;15.81;85.47;95208.75;5097690;28;20164;-78
2021/07/26 00:44:58;;;;;;;5.00;4.50;;;;;;;15.80;85.45;95210.56;5101012;27;20728;-77
2021/07/26 00:47:23;;;;;;;4.28;3.88;;;;;;;15.88;85.07;95214.84;5100593;27;20175;-76
2021/07/26 00:49:49;;;;;;;5.72;3.90;;;;;;;15.92;84.76;95213.50;5100555;27;20181;-78
2021/07/26 00:52:15;;;;;;;4.97;4.38;;;;;;;16.03;83.77;95210.38;5100822;27;20385;-77
2021/07/26 00:54:40;;;;;;;5.45;4.32;;;;;;;15.77;84.78;95220.59;5118105;27;20187;-77
2021/07/26 00:57:07;;;;;;;4.93;4.43;;;;;;;15.98;83.66;95215.34;5101217;27;20178;-77
2021/07/26 00:59:33;;;;;;;6.88;4.75;;;;;;;15.78;84.83;95217.00;5097588;28;20184;-78
2021/07/26 01:01:58;;;;;;;4.22;3.83;;;;;;;15.82;83.99;95216.44;5097709;28;20194;-77
2021/07/26 01:04:24;;;;;;;6.90;3.78;;;;;;;15.76;84.48;95213.75;5097810;28;20187;-77
2021/07/26 01:06:50;;;;;;;5.05;4.15;;;;;;;15.64;85.22;95215.25;5097569;28;20179;-77
2021/07/26 01:09:16;;;;;;;5.07;4.30;;;;;;;15.51;85.59;95211.47;5097452;28;20167;-78
2021/07/26 01:11:42;;;;;;;5.97;4.30;;;;;;;15.54;85.58;95216.31;5096963;28;20171;-78
2021/07/26 01:14:08;;;;;;;6.78;4.10;;;;;;;15.53;85.81;95209.47;5097670;28;20206;-78
2021/07/26 01:16:33;;;;;;;5.72;4.32;;;;;;;15.56;85.76;95216.97;5097575;28;20172;-78
2021/07/26 01:19:01;;;;;;;6.18;4.00;;;;;;;15.64;85.07;95220.50;5097213;28;20693;-77
2021/07/26 01:21:26;;;;;;;5.68;3.88;;;;;;;15.66;84.32;95221.13;5097239;28;20171;-77
2021/07/26 01:23:52;;;;;;;5.63;3.88;;;;;;;15.70;84.27;95224.97;5115035;28;20712;-78
2021/07/26 01:26:19;;;;;;;4.78;3.13;;;;;;;15.77;82.71;95223.22;5097012;28;20171;-78
2021/07/26 01:28:49;;;;;;;4.30;3.90;;;;;;;15.79;82.70;95218.59;5080131;28;20176;-77
2021/07/26 01:31:15;;;;;;;4.45;3.63;;;;;;;15.89;81.80;95221.72;5114727;28;20255;-78
2021/07/26 01:33:41;;;;;;;4.28;3.50;;;;;;;15.94;80.69;95218.53;5079822;28;20254;-78
2021/07/26 01:36:07;;;;;;;3.58;3.28;;;;;;;16.12;79.52;95218.91;5096384;28;20175;-78
2021/07/26 01:38:32;;;;;;;6.20;4.22;;;;;;;16.13;80.05;95221.31;5096403;28;20563;-78
2021/07/26 01:41:04;;;;;;;4.22;3.20;;;;;;;16.21;78.98;95216.94;5096889;28;20176;-78
2021/07/26 01:43:33;;;;;;;5.13;3.30;;;;;;;16.21;78.70;95216.94;5097624;28;20167;-78
2021/07/26 01:46:36;;;;;;;3.28;3.03;;;;;;;16.23;79.26;95209.69;5079651;28;20589;-79
2021/07/26 01:49:13;;;;;;;4.20;3.75;;;;;;;16.19;79.50;95211.91;5096347;28;20171;-78
2021/07/26 01:51:40;;;;;;;4.85;3.75;;;;;;;16.11;80.49;95205.00;5096008;28;20543;-78
2021/07/26 01:54:06;;;;;;;3.65;3.20;;;;;;;16.15;80.65;95200.97;5096368;28;20295;-77
2021/07/26 01:56:32;;;;;;;5.53;4.10;;;;;;;16.05;81.08;95203.13;5079651;28;20663;-78
2021/07/26 01:58:58;;;;;;;5.63;3.28;;;;;;;16.01;81.36;95211.56;5079465;28;20231;-78
2021/07/26 02:01:23;;;;;;;4.30;3.80;;;;;;;15.92;81.71;95210.88;5095772;28;20180;-78
2021/07/26 02:03:49;;;;;;;4.90;3.70;;;;;;;15.95;81.15;95191.34;5078963;28;20191;-79
2021/07/26 02:06:14;;;;;;;3.60;3.30;;;;;;;15.99;81.17;95203.06;5096122;28;20292;-78
2021/07/26 02:08:39;;;;;;;4.75;3.42;;;;;;;15.92;81.36;95202.22;5079124;28;20547;-79
2021/07/26 02:11:04;;;;;;;4.15;3.60;;;;;;;15.87;81.64;95208.00;5113996;28;20203;-78
2021/07/26 02:13:34;;;;;;;4.25;3.85;;;;;;;15.88;81.82;95201.75;5095837;28;20178;-77
2021/07/26 02:15:59;;;;;;;5.45;3.50;;;;;;;15.89;82.03;95211.25;5095575;28;20194;-78
2021/07/26 02:18:24;;;;;;;4.28;3.47;;;;;;;15.83;81.96;95219.88;5078900;28;20684;-78
2021/07/26 02:20:49;;;;;;;6.85;4.38;;;;;;;15.79;82.18;95223.84;5079182;28;20226;-78
2021/07/26 02:23:15;;;;;;;4.88;3.40;;;;;;;15.84;82.08;95218.88;5095596;28;20199;-78
2021/07/26 02:25:40;;;;;;;3.78;3.47;;;;;;;15.78;82.29;95227.47;5114195;28;20218;-78
2021/07/26 02:28:07;;;;;;;5.60;3.70;;;;;;;15.84;82.50;95227.53;5112806;28;20650;-79
2021/07/26 02:30:32;;;;;;;4.95;3.90;;;;;;;15.87;82.30;95221.09;5096110;28;20172;-79
2021/07/26 02:32:57;;;;;;;5.10;3.78;;;;;;;15.75;82.65;95223.41;5095447;28;20176;-78
2021/07/26 02:35:23;;;;;;;3.95;3.63;;;;;;;15.74;82.71;95223.59;5094687;28;20199;-78
2021/07/26 02:37:51;;;;;;;4.68;3.95;;;;;;;15.67;83.52;95220.13;5078640;28;20192;-78
2021/07/26 02:40:16;;;;;;;5.85;3.65;;;;;;;15.70;83.02;95224.97;5114424;28;20168;-79
2021/07/26 02:42:41;;;;;;;3.92;3.60;;;;;;;15.66;83.33;95219.31;5095852;28;20183;-78
2021/07/26 02:45:07;;;;;;;6.15;3.47;;;;;;;15.62;83.69;95219.84;5095521;28;20208;-78
2021/07/26 02:47:32;;;;;;;4.40;4.00;;;;;;;15.62;83.59;95227.69;5078729;28;20593;-78
2021/07/26 02:49:58;;;;;;;4.53;4.13;;;;;;;15.59;83.80;95224.44;5096099;28;20168;-78
2021/07/26 02:52:23;;;;;;;4.32;3.90;;;;;;;15.62;84.02;95238.97;5095102;28;20542;-79
2021/07/26 02:54:48;;;;;;;4.40;4.00;;;;;;;15.61;83.95;95233.94;5113593;28;20204;-78
2021/07/26 02:57:13;;;;;;;5.32;3.75;;;;;;;15.59;84.16;95234.91;5078274;28;20172;-79
2021/07/26 02:59:39;;;;;;;4.65;4.07;;;;;;;15.60;84.25;95238.31;5095489;28;20321;-78
2021/07/26 03:02:04;;;;;;;7.07;3.95;;;;;;;15.61;84.18;95237.34;5078271;28;20172;-78
2021/07/26 03:04:30;;;;;;;5.93;4.18;;;;;;;15.54;84.62;95232.00;5113363;28;20191;-77
2021/07/26 03:06:55;;;;;;;5.18;4.07;;;;;;;15.57;84.42;95236.91;5095504;28;20232;-78
2021/07/26 03:09:21;;;;;;;5.43;4.43;;;;;;;15.59;84.29;95240.13;5095178;28;20288;-78
2021/07/26 03:11:46;;;;;;;7.05;4.10;;;;;;;15.62;84.38;95249.44;5094662;28;20645;-78
2021/07/26 03:14:11;;;;;;;6.32;4.32;;;;;;;15.58;84.34;95246.38;5078498;28;20204;-77
2021/07/26 03:16:36;;;;;;;4.88;4.47;;;;;;;15.59;84.49;95244.56;5094786;28;20176;-78
2021/07/26 03:19:02;;;;;;;5.32;4.25;;;;;;;15.49;84.64;95250.09;5113193;28;20270;-79
2021/07/26 03:21:27;;;;;;;5.97;4.53;;;;;;;15.48;85.02;95250.28;5077838;28;20187;-78
2021/07/26 03:23:52;;;;;;;5.93;4.75;;;;;;;15.49;84.89;95250.09;5078156;28;20195;-78
2021/07/26 03:26:18;;;;;;;4.10;3.70;;;;;;;15.48;84.73;95252.91;5095192;28;20176;-78
2021/07/26 03:28:43;;;;;;;5.57;4.05;;;;;;;15.45;84.89;95245.41;5094730;28;20246;-78
2021/07/26 03:31:08;;;;;;;5.07;4.45;;;;;;;15.40;84.63;95247.78;5095785;28;20229;-79
2021/07/26 03:33:34;;;;;;;5.07;4.10;;;;;;;15.40;84.67;95248.59;5095757;28;20188;-79
2021/07/26 03:35:59;;;;;;;6.30;4.07;;;;;;;15.33;85.16;95250.31;5095148;28;20188;-78
2021/07/26 03:38:25;;;;;;;5.68;4.18;;;;;;;15.34;84.77;95253.75;5122001;28;20216;-78
2021/07/26 03:40:51;;;;;;;4.55;4.15;;;;;;;15.29;84.89;95249.88;5095794;28;20646;-78
2021/07/26 03:43:16;;;;;;;5.78;4.47;;;;;;;15.25;84.84;95258.28;5093804;28;20191;-78
2021/07/26 03:45:42;;;;;;;7.35;4.50;;;;;;;15.19;85.38;95249.34;5094253;28;20202;-78
2021/07/26 03:48:07;;;;;;;4.90;4.40;;;;;;;15.14;85.49;95246.47;5098017;28;20164;-78
2021/07/26 03:50:32;;;;;;;4.97;4.25;;;;;;;15.12;85.48;95251.09;5098211;28;20207;-78
2021/07/26 03:52:58;;;;;;;5.13;4.63;;;;;;;15.16;85.37;95248.91;5097951;28;20263;-77
2021/07/26 03:55:25;;;;;;;6.28;4.05;;;;;;;15.18;84.86;95252.13;5097937;28;20207;-78
2021/07/26 03:57:52;;;;;;;4.95;3.80;;;;;;;15.26;84.91;95258.09;5097954;28;20203;-78
2021/07/26 04:00:19;;;;;;;5.65;4.05;;;;;;;15.18;84.72;95242.50;5080787;28;20266;-78
2021/07/26 04:03:06;;;;;;;5.07;4.18;;;;;;;15.24;84.55;95251.41;5097818;28;20281;-78
2021/07/26 04:05:38;;;;;;;4.35;3.95;;;;;;;15.20;84.66;95243.13;5100022;28;20292;-78
2021/07/26 04:08:08;;;;;;;5.03;4.10;;;;;;;15.22;84.86;95242.94;5098712;28;20196;-77
2021/07/26 04:10:35;;;;;;;7.55;4.32;;;;;;;15.23;84.81;95252.41;5080990;28;20172;-78
2021/07/26 04:13:00;;;;;;;6.35;4.43;;;;;;;15.21;84.76;95241.34;5097522;28;20176;-78
2021/07/26 04:15:26;;;;;;;4.60;4.07;;;;;;;15.21;84.79;95236.91;5080948;28;20218;-77
2021/07/26 04:17:52;;;;;;;5.10;4.32;;;;;;;15.21;84.47;95238.72;5115875;28;20188;-77
2021/07/26 04:20:17;;;;;;;4.90;4.50;;;;;;;15.37;83.31;95237.66;5097624;28;20168;-77
2021/07/26 04:22:42;;;;;;;4.65;4.18;;;;;;;15.19;83.66;95241.50;5080398;28;20176;-78
2021/07/26 04:25:08;;;;;;;6.25;4.28;;;;;;;15.25;83.87;95237.34;5080339;28;20320;-78
2021/07/26 04:27:35;;;;;;;6.47;4.63;;;;;;;15.16;84.24;95238.44;5097528;28;20360;-77
2021/07/26 04:30:01;;;;;;;6.35;5.15;;;;;;;15.12;84.65;95238.00;5097735;28;20172;-78
2021/07/26 04:32:26;;;;;;;4.75;4.35;;;;;;;15.12;84.74;95240.63;5080266;28;20666;-77
2021/07/26 04:34:52;;;;;;;7.57;5.22;;;;;;;15.17;84.72;95232.22;5097537;28;20674;-78
2021/07/26 04:37:17;;;;;;;6.45;4.65;;;;;;;15.25;84.47;95247.81;5080800;28;20583;-77
2021/07/26 04:39:42;;;;;;;4.85;4.38;;;;;;;15.36;84.26;95244.72;5080156;28;20263;-78
2021/07/26 04:42:08;;;;;;;4.85;4.45;;;;;;;15.38;84.18;95247.97;5115525;28;20267;-77
2021/07/26 04:44:36;;;;;;;7.00;4.70;;;;;;;15.38;84.16;95245.34;5097437;28;20271;-77
2021/07/26 04:47:01;;;;;;;7.07;4.95;;;;;;;15.37;84.04;95246.34;5080665;28;20224;-78
2021/07/26 04:49:27;;;;;;;5.20;4.65;;;;;;;15.54;83.82;95252.16;5097469;28;20180;-77
2021/07/26 04:51:52;;;;;;;7.38;5.65;;;;;;;15.78;82.97;95254.44;5097120;28;20628;-78
2021/07/26 04:54:17;;;;;;;6.38;4.80;;;;;;;16.88;79.83;95256.53;5115149;28;20240;-77
2021/07/26 04:56:42;;;;;;;7.03;3.90;;;;;;;18.22;72.92;95264.66;5080032;28;20202;-77
2021/07/26 04:59:08;;;;;;;5.90;3.90;;;;;;;18.67;70.43;95272.75;5095962;28;20212;-78
2021/07/26 05:01:33;;;;;;;4.57;4.10;;;;;;;18.80;71.27;95274.53;5096687;28;20643;-78
2021/07/26 05:03:58;;;;;;;5.60;3.95;;;;;;;18.14;71.69;95264.84;5096593;28;20187;-77
2021/07/26 05:06:24;;;;;;;5.70;3.72;;;;;;;18.83;69.08;95271.53;5096892;28;20247;-78
2021/07/26 05:08:49;;;;;;;5.95;3.90;;;;;;;19.47;68.60;95274.16;5096538;28;20229;-78
2021/07/26 05:11:21;;;;;;;6.10;3.63;;;;;;;19.65;66.42;95278.75;5096664;28;20251;-78
2021/07/26 05:13:46;;;;;;;5.05;3.55;;;;;;;21.12;61.62;95277.44;5080048;28;20176;-78
2021/07/26 05:16:11;;;;;;;4.65;3.45;;;;;;;22.55;56.08;95281.28;5114654;28;20631;-78
2021/07/26 05:18:37;;;;;;;5.05;3.20;;;;;;;23.40;54.82;95286.09;5096592;28;20195;-77
2021/07/26 05:21:02;;;;;;;3.95;2.88;;;;;;;24.25;51.58;95288.03;5079735;28;20180;-77
2021/07/26 05:23:27;;;;;;;4.20;3.00;;;;;;;25.39;48.43;95295.66;5079138;28;20202;-78
2021/07/26 05:25:52;;;;;;;7.93;3.05;;;;;;;25.28;49.52;95294.72;5114818;28;20196;-78
2021/07/26 05:28:18;;;;;;;3.88;3.20;;;;;;;25.75;46.14;95288.13;5096440;28;20183;-78
2021/07/26 05:30:43;;;;;;;3.40;3.10;;;;;;;26.04;46.43;95292.16;5079370;28;20182;-78
2021/07/26 05:33:08;;;;;;;3.97;3.20;;;;;;;25.72;46.18;95296.63;5114500;28;20615;-78
2021/07/26 05:35:34;;;;;;;5.20;3.05;;;;;;;24.69;49.47;95302.31;5114465;28;20258;-78
2021/07/26 05:38:03;;;;;;;3.67;3.03;;;;;;;24.80;49.77;95297.97;5078981;28;20697;-78
2021/07/26 05:40:28;;;;;;;4.82;3.15;;;;;;;24.41;50.44;95295.22;5096530;28;20241;-78
2021/07/26 05:42:54;;;;;;;3.75;3.33;;;;;;;24.12;51.28;95305.06;5078709;28;20180;-78
2021/07/26 05:45:19;;;;;;;4.80;2.88;;;;;;;25.11;48.55;95292.09;5096548;28;20191;-78
2021/07/26 05:47:49;;;;;;;3.45;3.13;;;;;;;25.66;47.87;95303.69;5096163;28;20586;-78
2021/07/26 05:50:15;;;;;;;3.97;3.55;;;;;;;24.33;50.92;95297.47;5097260;28;20543;-78
2021/07/26 05:52:40;;;;;;;4.43;3.53;;;;;;;24.73;50.63;95306.09;5095773;28;20176;-78
2021/07/26 05:55:05;;;;;;;4.22;3.28;;;;;;;25.28;47.65;95299.22;5095932;28;20203;-78
2021/07/26 05:57:35;;;;;;;4.35;3.17;;;;;;;24.60;50.16;95309.06;5096335;28;20666;-78
2021/07/26 06:00:07;;;;;;;4.18;2.97;;;;;;;25.22;48.74;95298.34;5114077;28;20186;-77
2021/07/26 06:02:32;;;;;;;2.95;2.70;;;;;;;26.68;45.01;95297.59;5113983;28;20186;-78
2021/07/26 06:04:58;;;;;;;4.40;2.90;;;;;;;27.32;42.35;95304.72;5078924;28;20196;-77
2021/07/26 06:07:23;;;;;;;3.55;3.22;;;;;;;27.14;43.30;95311.28;5078882;28;20485;-78
2021/07/26 06:09:51;;;;;;;5.25;4.75;;;;;;;26.71;43.03;95318.38;5095529;28;20587;-77
2021/07/26 06:12:17;;;;;;;4.68;3.10;;;;;;;26.74;43.77;95309.06;5095482;28;20180;-78
2021/07/26 06:14:42;;;;;;;4.75;3.97;;;;;;;26.61;44.31;95310.31;5078666;28;20196;-78
2021/07/26 06:17:07;;;;;;;15.85;8.43;;;;;;;25.36;47.64;95312.09;5095484;28;20497;-78
2021/07/26 06:19:33;;;;;;;4.18;3.15;;;;;;;26.11;46.38;95316.72;5078033;28;20300;-76
2021/07/26 06:21:58;;;;;;;5.63;3.20;;;;;;;27.03;43.83;95320.22;5094531;28;20203;-76
2021/07/26 06:24:24;;;;;;;8.25;4.72;;;;;;;27.78;43.09;95321.75;5094234;28;20203;-77
2021/07/26 06:26:52;;;;;;;11.15;7.43;;;;;;;28.17;41.30;95316.78;5094536;28;20175;-77
2021/07/26 06:29:18;;;;;;;5.68;3.25;;;;;;;29.89;37.93;95315.09;5094949;28;20172;-77
2021/07/26 06:31:45;;;;;;;4.18;3.30;;;;;;;29.88;37.69;95315.38;5078063;28;20221;-79
2021/07/26 06:34:11;;;;;;;4.30;3.00;;;;;;;29.05;37.75;95313.97;5078607;28;20207;-81
2021/07/26 06:36:37;;;;;;;4.65;3.00;;;;;;;29.90;37.50;95318.59;5095311;28;20176;-78
2021/07/26 06:39:03;;;;;;;3.10;2.80;;;;;;;29.36;37.84;95318.47;5094725;28;20608;-78
2021/07/26 06:41:28;;;;;;;2.97;2.78;;;;;;;29.82;37.17;95319.94;5094194;28;20226;-76
2021/07/26 06:43:54;;;;;;;3.30;2.83;;;;;;;31.07;33.47;95327.78;5094571;28;20231;-79
2021/07/26 06:46:20;;;;;;;3.53;3.08;;;;;;;30.39;34.73;95331.19;5077893;28;20168;-77
2021/07/26 06:48:45;;;;;;;4.85;2.67;;;;;;;30.39;33.65;95333.88;5102883;27;20678;-77
2021/07/26 06:51:10;;;;;;;3.67;2.67;;;;;;;29.49;36.73;95333.97;5112640;27;20190;-76
2021/07/26 06:53:36;;;;;;;4.57;2.75;;;;;;;28.02;37.29;95327.44;5120012;27;20171;-76
2021/07/26 06:56:08;;;;;;;4.63;2.97;;;;;;;27.78;39.07;95324.44;5135404;27;20599;-76
2021/07/26 06:58:38;;;;;;;3.20;2.90;;;;;;;28.12;38.23;95324.00;5117138;28;20206;-77
2021/07/26 07:01:13;;;;;;;3.80;2.90;;;;;;;27.76;37.81;95323.88;5144512;27;20168;-76
2021/07/26 07:03:39;;;;;;;5.05;2.97;;;;;;;28.45;38.23;95328.91;5098559;27;20175;-77
2021/07/26 07:06:06;;;;;;;2.92;2.63;;;;;;;28.91;38.04;95323.63;5098222;27;20261;-77
2021/07/26 07:08:32;;;;;;;3.83;3.00;;;;;;;28.23;38.41;95317.63;5114756;28;20217;-76
2021/07/26 07:11:02;;;;;;;3.10;2.30;;;;;;;29.06;37.03;95323.59;5114711;28;20537;-76
2021/07/26 07:13:27;;;;;;;3.97;3.00;;;;;;;29.50;36.63;95331.03;5097329;27;20175;-77
2021/07/26 07:15:52;;;;;;;4.45;3.65;;;;;;;29.19;37.27;95329.47;5132751;27;20186;-75
2021/07/26 07:18:18;;;;;;;3.70;2.80;;;;;;;29.10;35.43;95329.22;5114224;28;20199;-76
2021/07/26 07:20:43;;;;;;;3.10;2.80;;;;;;;28.44;37.75;95327.28;5096839;28;20178;-76
2021/07/26 07:23:08;;;;;;;4.32;3.28;;;;;;;28.75;36.67;95330.00;5132594;28;20190;-77
2021/07/26 07:25:35;;;;;;;4.13;2.97;;;;;;;28.54;37.41;95331.06;5114165;28;20197;-77
2021/07/26 07:28:01;;;;;;;4.07;2.70;;;;;;;29.14;36.89;95338.28;5097328;28;20195;-76
2021/07/26 07:30:26;;;;;;;4.10;3.20;;;;;;;28.19;37.47;95335.25;5114223;28;20215;-77
2021/07/26 07:32:51;;;;;;;4.85;3.17;;;;;;;28.44;36.75;95332.63;5114153;28;20178;-76
2021/07/26 07:35:17;;;;;;;5.30;2.97;;;;;;;28.32;37.99;95337.44;5132765;28;20533;-75
2021/07/26 07:37:42;;;;;;;3.60;3.13;;;;;;;28.78;36.97;95340.16;5114795;28;20191;-77
2021/07/26 07:40:08;;;;;;;3.67;3.22;;;;;;;29.13;35.55;95341.22;5091116;28;20183;-77
2021/07/26 07:42:33;;;;;;;4.22;3.05;;;;;;;28.76;37.06;95351.09;5110100;28;20180;-76
2021/07/26 07:44:59;;;;;;;3.72;3.15;;;;;;;29.34;35.45;95343.63;5093368;28;20238;-76
2021/07/26 07:47:24;;;;;;;3.42;3.13;;;;;;;28.47;37.11;95347.34;5077188;28;20623;-76
2021/07/26 07:49:49;;;;;;;5.00;3.20;;;;;;;28.06;37.91;95344.53;5093934;28;20179;-77
2021/07/26 07:52:15;;;;;;;3.75;3.33;;;;;;;28.27;37.31;95350.75;5093886;28;20187;-77
2021/07/26 07:54:40;;;;;;;3.25;2.97;;;;;;;28.38;37.63;95347.06;5093379;28;20611;-76
2021/07/26 07:57:05;;;;;;;4.97;3.13;;;;;;;28.49;38.31;95359.34;5113789;28;20639;-75
2021/07/26 07:59:31;;;;;;;3.42;3.10;;;;;;;28.25;39.17;95347.53;5093274;28;20208;-76
2021/07/26 08:01:56;;;;;;;5.10;3.15;;;;;;;26.75;41.37;95347.97;5114797;27;20552;-76
2021/07/26 08:04:22;;;;;;;4.53;3.00;;;;;;;27.04;41.67;95354.66;5106260;28;20249;-76
2021/07/26 08:06:47;;;;;;;3.83;3.45;;;;;;;26.74;42.19;95357.81;5091653;28;20544;-75
2021/07/26 08:09:12;;;;;;;5.93;3.50;;;;;;;26.02;43.30;95347.50;5110216;28;20221;-75
2021/07/26 08:11:38;;;;;;;4.95;3.40;;;;;;;25.38;44.18;95353.31;5093224;28;20168;-76
2021/07/26 08:14:03;;;;;;;4.05;3.45;;;;;;;24.62;46.92;95362.72;5093546;28;20644;-76
2021/07/26 08:16:29;;;;;;;4.93;3.30;;;;;;;24.93;45.17;95356.06;5110395;28;20217;-75
2021/07/26 08:18:56;;;;;;;6.53;3.65;;;;;;;24.60;47.92;95350.75;5111536;28;20224;-75
2021/07/26 08:21:22;;;;;;;4.68;3.53;;;;;;;24.80;47.98;95354.53;5093552;28;20222;-75
2021/07/26 08:23:47;;;;;;;4.07;3.67;;;;;;;25.02;46.43;95354.66;5093536;28;20184;-76
2021/07/26 08:26:12;;;;;;;3.42;3.08;;;;;;;25.08;46.78;95352.84;5093139;28;20179;-77
2021/07/26 08:28:38;;;;;;;3.22;3.00;;;;;;;25.38;46.33;95363.16;5093583;28;20607;-76
2021/07/26 08:31:03;;;;;;;3.33;2.92;;;;;;;24.90;47.61;95363.69;5093255;28;20176;-76
2021/07/26 08:33:29;;;;;;;3.45;3.10;;;;;;;24.76;47.50;95364.03;5094667;28;20241;-76
2021/07/26 08:35:54;;;;;;;3.95;3.38;;;;;;;24.87;47.36;95367.66;5114962;28;20196;-76
2021/07/26 08:38:20;;;;;;;3.72;3.38;;;;;;;24.65;47.77;95364.91;5115066;28;20202;-75
2021/07/26 08:40:45;;;;;;;5.93;3.30;;;;;;;24.82;47.08;95359.59;5096288;28;20667;-76
2021/07/26 08:43:12;;;;;;;4.25;3.35;;;;;;;24.95;47.75;95369.13;5096522;28;20190;-76
2021/07/26 08:45:38;;;;;;;3.42;3.13;;;;;;;24.84;47.84;95362.84;5096638;28;20245;-77
2021/07/26 08:48:05;;;;;;;4.43;3.47;;;;;;;25.13;46.31;95364.38;5096815;28;20172;-77
2021/07/26 08:50:32;;;;;;;5.07;3.30;;;;;;;25.56;46.25;95359.41;5096598;28;20172;-77
2021/07/26 08:52:58;;;;;;;3.88;3.58;;;;;;;24.98;46.41;95358.00;5114816;27;20183;-76
2021/07/26 08:55:23;;;;;;;3.67;3.25;;;;;;;25.22;46.45;95358.66;5136580;27;20225;-74
2021/07/26 08:57:49;;;;;;;3.88;3.47;;;;;;;25.47;47.05;95356.38;5124749;27;20693;-77
2021/07/26 09:00:19;;;;;;;4.15;3.30;;;;;;;25.28;47.23;95360.34;5117377;27;20167;-77
2021/07/26 09:02:44;;;;;;;5.28;3.08;;;;;;;25.69;45.43;95349.19;5117167;27;20178;-77
2021/07/26 09:05:11;;;;;;;3.40;2.92;;;;;;;25.26;47.10;95359.75;5116977;27;20187;-77
2021/07/26 09:07:39;;;;;;;4.57;2.67;;;;;;;25.18;43.52;95358.34;5099905;27;20174;-76
2021/07/26 09:10:25;;;;;;;3.25;2.80;;;;;;;25.01;45.57;95357.53;5135102;27;20178;-75
2021/07/26 09:12:54;;;;;;;7.25;3.15;;;;;;;25.42;45.66;95353.63;5115900;27;20187;-76
2021/07/26 09:15:37;;;;;;;3.45;3.13;;;;;;;25.04;47.36;95349.09;5116587;27;20282;-75
2021/07/26 09:18:05;;;;;;;4.35;2.85;;;;;;;25.37;46.50;95354.38;5116503;27;20268;-75
2021/07/26 09:20:32;;;;;;;3.63;3.33;;;;;;;24.79;46.44;95357.44;5116839;27;20182;-75
2021/07/26 09:22:58;;;;;;;3.25;2.95;;;;;;;24.82;47.98;95351.63;5115996;27;20198;-77
2021/07/26 09:25:28;;;;;;;4.50;2.95;;;;;;;24.68;46.91;95355.66;5099083;27;20737;-76
2021/07/26 09:28:13;;;;;;;4.00;3.00;;;;;;;24.47;47.11;95350.00;5116545;27;20179;-76
2021/07/26 09:30:39;;;;;;;4.45;3.63;;;;;;;24.04;49.23;95353.19;5116216;27;20254;-77
2021/07/26 09:33:15;;;;;;;3.30;3.05;;;;;;;24.22;49.74;95344.22;5098878;27;20186;-76
2021/07/26 09:35:40;;;;;;;4.72;3.33;;;;;;;23.84;50.29;95342.94;5099169;27;20673;-75
2021/07/26 09:38:05;;;;;;;5.25;3.58;;;;;;;23.91;51.16;95350.78;5099128;27;20260;-76
2021/07/26 09:40:32;;;;;;;5.28;3.85;;;;;;;23.77;52.70;95352.09;5116097;27;20191;-76
2021/07/26 09:43:18;;;;;;;7.80;4.00;;;;;;;23.54;55.46;95359.03;5116153;27;20175;-75
2021/07/26 09:45:44;;;;;;;6.13;4.20;;;;;;;23.22;59.25;95360.41;5116258;27;20195;-77
2021/07/26 09:48:14;;;;;;;6.28;4.68;;;;;;;22.89;61.45;95354.66;5116048;27;20163;-76
2021/07/26 09:50:42;;;;;;;8.70;4.50;;;;;;;22.55;62.50;95347.44;5115965;27;20790;-77
2021/07/26 09:53:24;;;;;;;7.80;4.55;;;;;;;21.47;67.00;95354.31;5098792;27;20183;-76
2021/07/26 09:55:52;;;;;;;6.70;5.18;;;;;;;20.98;67.83;95349.88;5115538;27;20712;-77
2021/07/26 09:58:21;;;;;;;7.80;4.80;;;;;;;20.45;70.26;95352.94;5115795;27;20242;-77
2021/07/26 10:00:47;;;;;;;5.57;4.45;;;;;;;20.58;68.39;95350.22;5115797;27;20224;-77
2021/07/26 10:03:15;;;;;;;5.07;4.10;;;;;;;20.56;68.07;95357.50;5115473;27;20253;-77
2021/07/26 10:05:42;;;;;;;6.28;4.57;;;;;;;20.53;69.87;95365.06;5098622;27;20199;-77
2021/07/26 10:08:08;;;;;;;5.32;4.35;;;;;;;20.72;71.65;95358.81;5115367;27;20164;-75
2021/07/26 10:10:36;;;;;;;5.72;4.75;;;;;;;20.97;71.38;95360.66;5115254;27;20634;-76
2021/07/26 10:13:02;;;;;;;5.95;5.13;;;;;;;21.16;71.31;95362.31;5115092;27;20182;-76
2021/07/26 10:15:29;;;;;;;5.90;4.90;;;;;;;21.54;71.42;95354.22;5115178;27;20195;-76
2021/07/26 10:17:54;;;;;;;6.15;5.57;;;;;;;21.92;70.45;95346.06;5133476;27;20191;-76
2021/07/26 10:20:22;;;;;;;6.45;5.15;;;;;;;22.37;68.16;95350.16;5115371;27;20221;-76
2021/07/26 10:22:57;;;;;;;7.00;5.00;;;;;;;21.95;66.02;95335.03;5114968;27;20690;-76
2021/07/26 10:25:28;;;;;;;5.07;4.68;;;;;;;22.19;65.88;95330.66;5115274;27;20562;-77
2021/07/26 10:28:01;;;;;;;5.40;4.82;;;;;;;22.19;68.37;95338.59;5115198;27;20657;-75
2021/07/26 10:30:37;;;;;;;5.68;4.68;;;;;;;22.60;65.59;95342.25;5115191;27;20531;-77
2021/07/26 10:33:04;;;;;;;5.50;4.63;;;;;;;22.34;64.62;95354.84;5114921;27;20215;-76
2021/07/26 10:35:37;;;;;;;8.00;5.07;;;;;;;21.62;67.29;95355.75;5114943;27;20187;-77
2021/07/26 10:38:04;;;;;;;5.70;4.97;;;;;;;21.67;67.25;95351.44;5115084;27;20222;-77
2021/07/26 10:40:41;;;;;;;7.22;4.82;;;;;;;21.78;66.37;95353.31;5114739;27;20536;-77
2021/07/26 10:43:09;;;;;;;7.75;4.63;;;;;;;21.71;67.40;95360.53;5114780;27;20193;-76
2021/07/26 10:45:34;;;;;;;5.50;4.15;;;;;;;21.17;64.71;95358.63;5115240;27;20216;-76
2021/07/26 10:48:22;;;;;;;5.57;3.75;;;;;;;21.27;65.90;95352.88;5114965;27;20262;-77
2021/07/26 10:50:55;;;;;;;5.90;3.80;;;;;;;21.13;64.60;95350.34;5114469;27;20201;-77
2021/07/26 10:53:32;;;;;;;4.57;4.15;;;;;;;20.95;67.21;95352.97;5097377;27;20692;-76
2021/07/26 10:56:06;;;;;;;5.10;4.40;;;;;;;20.62;68.16;95343.47;5139960;27;20195;-73
2021/07/26 10:58:38;;;;;;;4.10;3.60;;;;;;;20.75;67.16;95342.56;5121730;27;20260;-76
2021/07/26 11:01:21;;;;;;;4.72;4.07;;;;;;;20.75;68.11;95332.00;5133473;27;20178;-76
2021/07/26 11:03:57;;;;;;;6.22;4.30;;;;;;;20.70;67.85;95337.13;5132971;27;20171;-76
2021/07/26 11:06:35;;;;;;;5.88;4.53;;;;;;;20.75;67.54;95336.47;5114956;27;20178;-75
2021/07/26 11:09:21;;;;;;;4.85;4.32;;;;;;;20.84;68.12;95343.91;5132895;27;20279;-76
2021/07/26 11:11:47;;;;;;;4.50;3.92;;;;;;;21.02;67.96;95352.88;5114398;27;20536;-77
2021/07/26 11:14:13;;;;;;;6.20;4.60;;;;;;;21.35;66.04;95349.97;5114314;27;20199;-77
2021/07/26 11:17:07;;;;;;;4.78;4.35;;;;;;;22.02;64.44;95341.03;5097388;27;20171;-77
2021/07/26 11:19:44;;;;;;;4.63;4.18;;;;;;;22.79;62.61;95338.53;5114145;28;20207;-76
2021/07/26 11:22:15;;;;;;;4.43;3.97;;;;;;;23.13;60.08;95334.28;5132478;28;20174;-78
2021/07/26 11:24:44;;;;;;;5.65;4.05;;;;;;;23.31;59.71;95332.53;5113156;28;20198;-76
2021/07/26 11:27:13;;;;;;;4.50;3.88;;;;;;;23.63;60.24;95330.34;5114258;28;20228;-78
2021/07/26 11:29:38;;;;;;;3.55;3.25;;;;;;;23.82;56.16;95334.44;5115122;28;20174;-77
2021/07/26 11:32:04;;;;;;;5.45;3.90;;;;;;;24.21;56.64;95335.47;5114269;28;20163;-77
2021/07/26 11:34:36;;;;;;;4.45;4.03;;;;;;;23.38;57.36;95330.59;5114396;28;20199;-77